sensor_id;sensor_type;location;lat;lon;timestamp;P1;durP1;ratioP1;P2;durP2;ratioP2
35223;SDS011;21367;51.930;8.112;2023-12-14T00:01:23;25.50;;;11.52;;
35223;SDS011;21367;51.930;8.112;2023-12-14T00:06:29;22.25;;;10.43;;
35223;SDS011;21367;51.930;8.112;2023-12-14T00:16:40;23.38;;;9.55;;
35223;SDS011;21367;51.930;8.112;2023-12-14T00:21:46;22.67;;;11.13;;
35223;SDS011;21367;51.930;8.112;2023-12-14T00:26:50;21.33;;;10.40;;
35223;SDS011;21367;51.930;8.112;2023-12-14T00:31:54;24.13;;;11.55;;
35223;SDS011;21367;51.930;8.112;2023-12-14T00:37:00;22.13;;;11.07;;
35223;SDS011;21367;51.930;8.112;2023-12-14T00:47:07;19.42;;;9.88;;
35223;SDS011;21367;51.930;8.112;2023-12-14T00:52:14;18.38;;;9.43;;
35223;SDS011;21367;51.930;8.112;2023-12-14T00:57:17;24.80;;;9.05;;
35223;SDS011;21367;51.930;8.112;2023-12-14T01:02:21;15.25;;;8.48;;
35223;SDS011;21367;51.930;8.112;2023-12-14T01:07:27;15.73;;;8.52;;
35223;SDS011;21367;51.930;8.112;2023-12-14T01:17:34;15.15;;;7.75;;
35223;SDS011;21367;51.930;8.112;2023-12-14T01:22:41;13.88;;;7.72;;
35223;SDS011;21367;51.930;8.112;2023-12-14T01:32:48;22.25;;;11.57;;
35223;SDS011;21367;51.930;8.112;2023-12-14T01:37:54;23.05;;;11.63;;
35223;SDS011;21367;51.930;8.112;2023-12-14T01:43:05;20.25;;;10.48;;
35223;SDS011;21367;51.930;8.112;2023-12-14T01:48:10;20.33;;;11.15;;
35223;SDS011;21367;51.930;8.112;2023-12-14T01:53:17;24.05;;;12.23;;
35223;SDS011;21367;51.930;8.112;2023-12-14T01:58:20;25.33;;;11.80;;
35223;SDS011;21367;51.930;8.112;2023-12-14T02:03:25;23.95;;;11.95;;
35223;SDS011;21367;51.930;8.112;2023-12-14T02:08:31;19.20;;;11.27;;
35223;SDS011;21367;51.930;8.112;2023-12-14T02:13:35;28.90;;;11.00;;
35223;SDS011;21367;51.930;8.112;2023-12-14T02:18:39;22.85;;;11.55;;
35223;SDS011;21367;51.930;8.112;2023-12-14T02:23:46;24.00;;;11.18;;
35223;SDS011;21367;51.930;8.112;2023-12-14T02:28:49;22.27;;;11.02;;
35223;SDS011;21367;51.930;8.112;2023-12-14T02:40:00;17.42;;;9.07;;
35223;SDS011;21367;51.930;8.112;2023-12-14T02:45:05;13.00;;;7.78;;
35223;SDS011;21367;51.930;8.112;2023-12-14T02:50:10;11.10;;;7.10;;
35223;SDS011;21367;51.930;8.112;2023-12-14T02:55:16;10.20;;;6.20;;
35223;SDS011;21367;51.930;8.112;2023-12-14T03:05:24;9.52;;;5.82;;
35223;SDS011;21367;51.930;8.112;2023-12-14T03:10:30;11.65;;;6.30;;
35223;SDS011;21367;51.930;8.112;2023-12-14T03:15:33;10.85;;;6.30;;
35223;SDS011;21367;51.930;8.112;2023-12-14T03:20:37;11.18;;;6.43;;
35223;SDS011;21367;51.930;8.112;2023-12-14T03:25:45;10.97;;;5.70;;
35223;SDS011;21367;51.930;8.112;2023-12-14T03:30:49;18.38;;;6.80;;
35223;SDS011;21367;51.930;8.112;2023-12-14T03:35:52;11.25;;;6.22;;
35223;SDS011;21367;51.930;8.112;2023-12-14T03:40:59;15.02;;;6.75;;
35223;SDS011;21367;51.930;8.112;2023-12-14T03:46:03;12.57;;;6.80;;
35223;SDS011;21367;51.930;8.112;2023-12-14T03:51:06;14.25;;;6.38;;
35223;SDS011;21367;51.930;8.112;2023-12-14T03:56:13;11.45;;;6.97;;
35223;SDS011;21367;51.930;8.112;2023-12-14T04:01:17;11.00;;;6.70;;
35223;SDS011;21367;51.930;8.112;2023-12-14T04:06:21;13.63;;;7.07;;
35223;SDS011;21367;51.930;8.112;2023-12-14T04:11:28;18.02;;;8.00;;
35223;SDS011;21367;51.930;8.112;2023-12-14T04:21:35;17.40;;;7.80;;
35223;SDS011;21367;51.930;8.112;2023-12-14T04:26:41;14.95;;;8.05;;
35223;SDS011;21367;51.930;8.112;2023-12-14T04:36:49;12.88;;;7.88;;
35223;SDS011;21367;51.930;8.112;2023-12-14T04:41:56;13.65;;;8.02;;
35223;SDS011;21367;51.930;8.112;2023-12-14T04:46:59;14.35;;;8.50;;
35223;SDS011;21367;51.930;8.112;2023-12-14T04:52:03;15.38;;;8.75;;
35223;SDS011;21367;51.930;8.112;2023-12-14T04:57:10;12.43;;;8.25;;
35223;SDS011;21367;51.930;8.112;2023-12-14T05:07:17;17.02;;;9.63;;
35223;SDS011;21367;51.930;8.112;2023-12-14T05:12:23;16.48;;;10.13;;
35223;SDS011;21367;51.930;8.112;2023-12-14T05:17:29;16.33;;;9.93;;
35223;SDS011;21367;51.930;8.112;2023-12-14T05:22:33;24.00;;;10.68;;
35223;SDS011;21367;51.930;8.112;2023-12-14T05:27:39;18.52;;;10.77;;
35223;SDS011;21367;51.930;8.112;2023-12-14T05:32:43;16.70;;;10.15;;
35223;SDS011;21367;51.930;8.112;2023-12-14T05:37:47;19.63;;;10.18;;
35223;SDS011;21367;51.930;8.112;2023-12-14T05:42:53;19.50;;;10.88;;
35223;SDS011;21367;51.930;8.112;2023-12-14T05:47:57;21.70;;;11.65;;
35223;SDS011;21367;51.930;8.112;2023-12-14T05:53:02;22.02;;;12.27;;
35223;SDS011;21367;51.930;8.112;2023-12-14T05:58:08;26.05;;;12.48;;
35223;SDS011;21367;51.930;8.112;2023-12-14T06:03:12;20.42;;;10.95;;
35223;SDS011;21367;51.930;8.112;2023-12-14T06:08:19;19.20;;;10.52;;
35223;SDS011;21367;51.930;8.112;2023-12-14T06:13:25;19.88;;;10.73;;
35223;SDS011;21367;51.930;8.112;2023-12-14T06:18:30;23.73;;;10.43;;
35223;SDS011;21367;51.930;8.112;2023-12-14T06:23:34;16.50;;;10.13;;
35223;SDS011;21367;51.930;8.112;2023-12-14T06:28:41;18.50;;;10.05;;
35223;SDS011;21367;51.930;8.112;2023-12-14T06:38:48;238.23;;;90.07;;
35223;SDS011;21367;51.930;8.112;2023-12-14T06:43:54;20.85;;;11.65;;
35223;SDS011;21367;51.930;8.112;2023-12-14T06:48:58;18.20;;;9.90;;
35223;SDS011;21367;51.930;8.112;2023-12-14T06:54:02;15.60;;;9.23;;
35223;SDS011;21367;51.930;8.112;2023-12-14T06:59:08;17.42;;;9.75;;
35223;SDS011;21367;51.930;8.112;2023-12-14T07:04:12;14.40;;;7.85;;
35223;SDS011;21367;51.930;8.112;2023-12-14T07:09:17;16.95;;;9.55;;
35223;SDS011;21367;51.930;8.112;2023-12-14T07:14:23;19.38;;;9.93;;
35223;SDS011;21367;51.930;8.112;2023-12-14T07:19:27;16.70;;;8.90;;
35223;SDS011;21367;51.930;8.112;2023-12-14T07:24:30;13.35;;;7.72;;
35223;SDS011;21367;51.930;8.112;2023-12-14T07:29:37;11.95;;;8.05;;
35223;SDS011;21367;51.930;8.112;2023-12-14T07:39:44;18.52;;;10.07;;
35223;SDS011;21367;51.930;8.112;2023-12-14T07:44:51;17.65;;;9.90;;
35223;SDS011;21367;51.930;8.112;2023-12-14T07:49:55;15.20;;;8.98;;
35223;SDS011;21367;51.930;8.112;2023-12-14T07:54:58;19.55;;;9.07;;
35223;SDS011;21367;51.930;8.112;2023-12-14T08:00:06;18.13;;;9.45;;
35223;SDS011;21367;51.930;8.112;2023-12-14T08:05:11;14.10;;;8.07;;
35223;SDS011;21367;51.930;8.112;2023-12-14T08:10:15;14.85;;;9.23;;
35223;SDS011;21367;51.930;8.112;2023-12-14T08:15:21;17.70;;;9.73;;
35223;SDS011;21367;51.930;8.112;2023-12-14T08:25:28;20.77;;;9.63;;
35223;SDS011;21367;51.930;8.112;2023-12-14T08:30:35;19.13;;;10.63;;
35223;SDS011;21367;51.930;8.112;2023-12-14T08:35:39;17.52;;;10.30;;
35223;SDS011;21367;51.930;8.112;2023-12-14T08:40:42;19.85;;;10.75;;
35223;SDS011;21367;51.930;8.112;2023-12-14T08:45:49;20.25;;;9.80;;
35223;SDS011;21367;51.930;8.112;2023-12-14T08:50:53;22.77;;;10.80;;
35223;SDS011;21367;51.930;8.112;2023-12-14T08:55:57;16.38;;;9.52;;
35223;SDS011;21367;51.930;8.112;2023-12-14T09:01:05;20.45;;;10.13;;
35223;SDS011;21367;51.930;8.112;2023-12-14T09:11:12;17.88;;;10.40;;
35223;SDS011;21367;51.930;8.112;2023-12-14T09:21:25;18.65;;;9.65;;
35223;SDS011;21367;51.930;8.112;2023-12-14T09:26:29;16.83;;;9.85;;
35223;SDS011;21367;51.930;8.112;2023-12-14T09:31:39;20.45;;;10.32;;
35223;SDS011;21367;51.930;8.112;2023-12-14T09:36:44;16.27;;;9.40;;
35223;SDS011;21367;51.930;8.112;2023-12-14T09:41:49;17.63;;;10.25;;
35223;SDS011;21367;51.930;8.112;2023-12-14T09:46:56;15.23;;;8.73;;
35223;SDS011;21367;51.930;8.112;2023-12-14T09:52:03;16.38;;;8.13;;
35223;SDS011;21367;51.930;8.112;2023-12-14T09:57:07;15.13;;;8.18;;
35223;SDS011;21367;51.930;8.112;2023-12-14T10:02:13;14.50;;;9.00;;
35223;SDS011;21367;51.930;8.112;2023-12-14T10:07:17;14.52;;;7.78;;
35223;SDS011;21367;51.930;8.112;2023-12-14T10:12:22;13.55;;;7.80;;
35223;SDS011;21367;51.930;8.112;2023-12-14T10:17:28;17.75;;;9.32;;
35223;SDS011;21367;51.930;8.112;2023-12-14T10:22:32;18.08;;;8.82;;
35223;SDS011;21367;51.930;8.112;2023-12-14T10:27:37;16.48;;;8.70;;
35223;SDS011;21367;51.930;8.112;2023-12-14T10:32:44;13.05;;;8.10;;
35223;SDS011;21367;51.930;8.112;2023-12-14T10:37:49;13.48;;;8.63;;
35223;SDS011;21367;51.930;8.112;2023-12-14T10:42:54;11.63;;;7.87;;
35223;SDS011;21367;51.930;8.112;2023-12-14T10:48:04;11.82;;;6.70;;
35223;SDS011;21367;51.930;8.112;2023-12-14T10:53:10;16.77;;;7.35;;
35223;SDS011;21367;51.930;8.112;2023-12-14T10:58:14;15.15;;;7.38;;
35223;SDS011;21367;51.930;8.112;2023-12-14T11:03:20;11.10;;;7.40;;
35223;SDS011;21367;51.930;8.112;2023-12-14T11:08:24;10.73;;;6.90;;
35223;SDS011;21367;51.930;8.112;2023-12-14T11:13:29;9.75;;;6.53;;
35223;SDS011;21367;51.930;8.112;2023-12-14T11:18:37;14.77;;;7.70;;
35223;SDS011;21367;51.930;8.112;2023-12-14T11:28:46;13.38;;;7.63;;
35223;SDS011;21367;51.930;8.112;2023-12-14T11:33:54;11.15;;;7.18;;
35223;SDS011;21367;51.930;8.112;2023-12-14T11:38:58;13.30;;;7.47;;
35223;SDS011;21367;51.930;8.112;2023-12-14T11:44:01;11.60;;;8.20;;
35223;SDS011;21367;51.930;8.112;2023-12-14T11:49:08;14.63;;;8.10;;
35223;SDS011;21367;51.930;8.112;2023-12-14T11:54:12;14.43;;;7.82;;
35223;SDS011;21367;51.930;8.112;2023-12-14T11:59:16;14.48;;;7.57;;
35223;SDS011;21367;51.930;8.112;2023-12-14T12:04:24;15.80;;;8.85;;
35223;SDS011;21367;51.930;8.112;2023-12-14T12:09:34;16.35;;;8.65;;
35223;SDS011;21367;51.930;8.112;2023-12-14T12:14:39;16.13;;;9.02;;
35223;SDS011;21367;51.930;8.112;2023-12-14T12:19:46;19.48;;;11.13;;
35223;SDS011;21367;51.930;8.112;2023-12-14T12:24:49;19.88;;;11.20;;
35223;SDS011;21367;51.930;8.112;2023-12-14T12:29:53;21.77;;;10.98;;
35223;SDS011;21367;51.930;8.112;2023-12-14T12:34:59;16.85;;;11.75;;
35223;SDS011;21367;51.930;8.112;2023-12-14T12:40:05;16.33;;;10.70;;
35223;SDS011;21367;51.930;8.112;2023-12-14T12:45:09;29.45;;;12.38;;
35223;SDS011;21367;51.930;8.112;2023-12-14T12:50:16;17.98;;;10.90;;
35223;SDS011;21367;51.930;8.112;2023-12-14T12:55:21;16.05;;;10.82;;
35223;SDS011;21367;51.930;8.112;2023-12-14T13:00:25;19.88;;;11.18;;
35223;SDS011;21367;51.930;8.112;2023-12-14T13:05:32;18.00;;;10.82;;
35223;SDS011;21367;51.930;8.112;2023-12-14T13:10:36;17.05;;;11.65;;
35223;SDS011;21367;51.930;8.112;2023-12-14T13:15:39;20.40;;;11.18;;
35223;SDS011;21367;51.930;8.112;2023-12-14T13:20:46;21.05;;;11.90;;
35223;SDS011;21367;51.930;8.112;2023-12-14T13:30:53;18.67;;;10.18;;
35223;SDS011;21367;51.930;8.112;2023-12-14T13:35:59;21.20;;;11.50;;
35223;SDS011;21367;51.930;8.112;2023-12-14T13:41:03;21.15;;;11.18;;
35223;SDS011;21367;51.930;8.112;2023-12-14T13:46:07;21.58;;;12.55;;
35223;SDS011;21367;51.930;8.112;2023-12-14T13:51:13;22.67;;;11.82;;
35223;SDS011;21367;51.930;8.112;2023-12-14T13:56:18;24.40;;;12.10;;
35223;SDS011;21367;51.930;8.112;2023-12-14T14:01:22;19.58;;;11.98;;
35223;SDS011;21367;51.930;8.112;2023-12-14T14:06:28;23.90;;;12.23;;
35223;SDS011;21367;51.930;8.112;2023-12-14T14:16:35;16.83;;;10.98;;
35223;SDS011;21367;51.930;8.112;2023-12-14T14:21:42;20.52;;;11.93;;
35223;SDS011;21367;51.930;8.112;2023-12-14T14:26:46;21.98;;;13.63;;
35223;SDS011;21367;51.930;8.112;2023-12-14T14:31:50;19.20;;;12.25;;
35223;SDS011;21367;51.930;8.112;2023-12-14T14:36:56;22.67;;;13.05;;
35223;SDS011;21367;51.930;8.112;2023-12-14T14:47:04;32.28;;;13.43;;
35223;SDS011;21367;51.930;8.112;2023-12-14T14:52:10;25.08;;;13.45;;
35223;SDS011;21367;51.930;8.112;2023-12-14T14:57:16;24.17;;;13.82;;
35223;SDS011;21367;51.930;8.112;2023-12-14T15:02:19;24.52;;;14.57;;
35223;SDS011;21367;51.930;8.112;2023-12-14T15:07:27;26.30;;;15.50;;
35223;SDS011;21367;51.930;8.112;2023-12-14T15:12:31;28.92;;;15.77;;
35223;SDS011;21367;51.930;8.112;2023-12-14T15:17:35;30.50;;;17.92;;
35223;SDS011;21367;51.930;8.112;2023-12-14T15:22:42;35.75;;;20.20;;
35223;SDS011;21367;51.930;8.112;2023-12-14T15:32:50;28.55;;;15.57;;
35223;SDS011;21367;51.930;8.112;2023-12-14T15:37:56;30.88;;;18.05;;
35223;SDS011;21367;51.930;8.112;2023-12-14T15:43:00;30.50;;;17.67;;
35223;SDS011;21367;51.930;8.112;2023-12-14T15:48:03;32.53;;;16.52;;
35223;SDS011;21367;51.930;8.112;2023-12-14T15:53:11;35.58;;;18.33;;
35223;SDS011;21367;51.930;8.112;2023-12-14T15:58:16;31.88;;;17.15;;
35223;SDS011;21367;51.930;8.112;2023-12-14T16:03:19;30.17;;;16.67;;
35223;SDS011;21367;51.930;8.112;2023-12-14T16:08:26;34.25;;;17.45;;
35223;SDS011;21367;51.930;8.112;2023-12-14T16:13:30;33.22;;;18.02;;
35223;SDS011;21367;51.930;8.112;2023-12-14T16:18:34;34.38;;;17.05;;
35223;SDS011;21367;51.930;8.112;2023-12-14T16:23:40;33.13;;;16.67;;
35223;SDS011;21367;51.930;8.112;2023-12-14T16:28:44;36.03;;;16.55;;
35223;SDS011;21367;51.930;8.112;2023-12-14T16:33:48;32.70;;;16.95;;
35223;SDS011;21367;51.930;8.112;2023-12-14T16:38:54;37.97;;;17.70;;
35223;SDS011;21367;51.930;8.112;2023-12-14T16:43:58;29.70;;;17.42;;
35223;SDS011;21367;51.930;8.112;2023-12-14T16:49:01;29.60;;;17.08;;
35223;SDS011;21367;51.930;8.112;2023-12-14T16:54:08;37.90;;;16.88;;
35223;SDS011;21367;51.930;8.112;2023-12-14T16:59:13;36.47;;;19.42;;
35223;SDS011;21367;51.930;8.112;2023-12-14T17:04:17;32.33;;;18.25;;
35223;SDS011;21367;51.930;8.112;2023-12-14T17:09:23;30.50;;;18.10;;
35223;SDS011;21367;51.930;8.112;2023-12-14T17:14:27;35.33;;;18.13;;
35223;SDS011;21367;51.930;8.112;2023-12-14T17:19:31;34.17;;;18.48;;
35223;SDS011;21367;51.930;8.112;2023-12-14T17:24:38;33.08;;;18.15;;
35223;SDS011;21367;51.930;8.112;2023-12-14T17:29:42;34.67;;;19.08;;
35223;SDS011;21367;51.930;8.112;2023-12-14T17:34:45;35.05;;;19.02;;
35223;SDS011;21367;51.930;8.112;2023-12-14T17:39:52;34.47;;;18.73;;
35223;SDS011;21367;51.930;8.112;2023-12-14T17:44:55;40.72;;;18.67;;
35223;SDS011;21367;51.930;8.112;2023-12-14T17:49:59;35.05;;;19.42;;
35223;SDS011;21367;51.930;8.112;2023-12-14T17:55:06;35.72;;;19.10;;
35223;SDS011;21367;51.930;8.112;2023-12-14T18:00:11;37.15;;;19.52;;
35223;SDS011;21367;51.930;8.112;2023-12-14T18:05:15;36.17;;;20.08;;
35223;SDS011;21367;51.930;8.112;2023-12-14T18:10:22;34.47;;;19.42;;
35223;SDS011;21367;51.930;8.112;2023-12-14T18:15:25;41.58;;;20.23;;
35223;SDS011;21367;51.930;8.112;2023-12-14T18:20:30;41.78;;;20.75;;
35223;SDS011;21367;51.930;8.112;2023-12-14T18:25:36;42.25;;;21.83;;
35223;SDS011;21367;51.930;8.112;2023-12-14T18:30:40;39.58;;;21.17;;
35223;SDS011;21367;51.930;8.112;2023-12-14T18:35:43;42.03;;;20.63;;
35223;SDS011;21367;51.930;8.112;2023-12-14T18:40:50;44.80;;;20.77;;
35223;SDS011;21367;51.930;8.112;2023-12-14T18:50:57;45.50;;;20.33;;
35223;SDS011;21367;51.930;8.112;2023-12-14T18:56:04;41.45;;;21.55;;
35223;SDS011;21367;51.930;8.112;2023-12-14T19:01:10;43.33;;;21.45;;
35223;SDS011;21367;51.930;8.112;2023-12-14T19:06:14;54.70;;;27.13;;
35223;SDS011;21367;51.930;8.112;2023-12-14T19:11:21;51.00;;;25.73;;
35223;SDS011;21367;51.930;8.112;2023-12-14T19:16:25;47.05;;;23.45;;
35223;SDS011;21367;51.930;8.112;2023-12-14T19:21:30;76.07;;;35.50;;
35223;SDS011;21367;51.930;8.112;2023-12-14T19:26:36;70.68;;;33.72;;
35223;SDS011;21367;51.930;8.112;2023-12-14T19:36:43;79.18;;;33.92;;
35223;SDS011;21367;51.930;8.112;2023-12-14T19:41:49;78.97;;;34.95;;
35223;SDS011;21367;51.930;8.112;2023-12-14T19:46:53;75.15;;;31.95;;
35223;SDS011;21367;51.930;8.112;2023-12-14T19:51:56;58.72;;;25.85;;
35223;SDS011;21367;51.930;8.112;2023-12-14T19:57:03;61.28;;;28.23;;
35223;SDS011;21367;51.930;8.112;2023-12-14T20:02:07;59.50;;;26.85;;
35223;SDS011;21367;51.930;8.112;2023-12-14T20:07:10;61.13;;;27.25;;
35223;SDS011;21367;51.930;8.112;2023-12-14T20:12:17;60.63;;;27.63;;
35223;SDS011;21367;51.930;8.112;2023-12-14T20:17:20;75.82;;;33.00;;
35223;SDS011;21367;51.930;8.112;2023-12-14T20:22:24;55.25;;;26.42;;
35223;SDS011;21367;51.930;8.112;2023-12-14T20:27:32;57.38;;;25.40;;
35223;SDS011;21367;51.930;8.112;2023-12-14T20:32:38;55.42;;;24.08;;
35223;SDS011;21367;51.930;8.112;2023-12-14T20:37:42;56.90;;;25.50;;
35223;SDS011;21367;51.930;8.112;2023-12-14T20:42:49;52.22;;;24.10;;
35223;SDS011;21367;51.930;8.112;2023-12-14T20:47:52;52.08;;;23.55;;
35223;SDS011;21367;51.930;8.112;2023-12-14T20:52:56;58.15;;;23.98;;
35223;SDS011;21367;51.930;8.112;2023-12-14T20:58:03;53.38;;;23.42;;
35223;SDS011;21367;51.930;8.112;2023-12-14T21:03:08;59.05;;;25.70;;
35223;SDS011;21367;51.930;8.112;2023-12-14T21:08:11;55.90;;;25.00;;
35223;SDS011;21367;51.930;8.112;2023-12-14T21:13:18;55.53;;;25.63;;
35223;SDS011;21367;51.930;8.112;2023-12-14T21:18:22;60.53;;;27.48;;
35223;SDS011;21367;51.930;8.112;2023-12-14T21:23:26;66.05;;;28.08;;
35223;SDS011;21367;51.930;8.112;2023-12-14T21:28:33;60.45;;;27.58;;
35223;SDS011;21367;51.930;8.112;2023-12-14T21:33:38;55.63;;;23.92;;
35223;SDS011;21367;51.930;8.112;2023-12-14T21:38:42;57.88;;;22.40;;
35223;SDS011;21367;51.930;8.112;2023-12-14T21:43:48;59.88;;;22.55;;
35223;SDS011;21367;51.930;8.112;2023-12-14T21:48:52;54.90;;;22.55;;
35223;SDS011;21367;51.930;8.112;2023-12-14T21:53:55;55.97;;;22.38;;
35223;SDS011;21367;51.930;8.112;2023-12-14T21:59:01;48.10;;;20.80;;
35223;SDS011;21367;51.930;8.112;2023-12-14T22:04:05;51.17;;;21.40;;
35223;SDS011;21367;51.930;8.112;2023-12-14T22:09:09;44.13;;;20.02;;
35223;SDS011;21367;51.930;8.112;2023-12-14T22:14:15;47.83;;;21.17;;
35223;SDS011;21367;51.930;8.112;2023-12-14T22:24:22;46.25;;;18.95;;
35223;SDS011;21367;51.930;8.112;2023-12-14T22:29:28;52.13;;;20.83;;
35223;SDS011;21367;51.930;8.112;2023-12-14T22:34:32;46.70;;;19.15;;
35223;SDS011;21367;51.930;8.112;2023-12-14T22:39:35;54.33;;;22.58;;
35223;SDS011;21367;51.930;8.112;2023-12-14T22:44:41;51.45;;;22.20;;
35223;SDS011;21367;51.930;8.112;2023-12-14T22:49:45;51.80;;;21.58;;
35223;SDS011;21367;51.930;8.112;2023-12-14T22:54:49;50.67;;;21.40;;
35223;SDS011;21367;51.930;8.112;2023-12-14T22:59:55;53.55;;;20.70;;
35223;SDS011;21367;51.930;8.112;2023-12-14T23:10:02;51.92;;;20.83;;
35223;SDS011;21367;51.930;8.112;2023-12-14T23:15:09;53.00;;;20.73;;
35223;SDS011;21367;51.930;8.112;2023-12-14T23:25:16;53.42;;;20.48;;
35223;SDS011;21367;51.930;8.112;2023-12-14T23:30:22;56.17;;;22.42;;
35223;SDS011;21367;51.930;8.112;2023-12-14T23:35:27;52.17;;;21.90;;
35223;SDS011;21367;51.930;8.112;2023-12-14T23:40:30;54.22;;;21.70;;
35223;SDS011;21367;51.930;8.112;2023-12-14T23:45:37;54.47;;;22.73;;
35223;SDS011;21367;51.930;8.112;2023-12-14T23:50:40;58.35;;;23.08;;
35223;SDS011;21367;51.930;8.112;2023-12-14T23:55:44;50.40;;;20.38;;
